sensor_id;sensor_type;location;lat;lon;timestamp;P1;durP1;ratioP1;P2;durP2;ratioP2
58615;SDS011;44385;51.992;4.206;2023-07-30T00:01:52;23.08;;;4.18;;
58615;SDS011;44385;51.992;4.206;2023-07-30T00:04:19;24.10;;;5.55;;
58615;SDS011;44385;51.992;4.206;2023-07-30T00:06:46;27.15;;;4.93;;
58615;SDS011;44385;51.992;4.206;2023-07-30T00:09:12;23.55;;;4.40;;
58615;SDS011;44385;51.992;4.206;2023-07-30T00:11:38;23.35;;;5.15;;
58615;SDS011;44385;51.992;4.206;2023-07-30T00:14:06;18.23;;;4.43;;
58615;SDS011;44385;51.992;4.206;2023-07-30T00:16:32;22.48;;;5.20;;
58615;SDS011;44385;51.992;4.206;2023-07-30T00:18:59;20.73;;;5.07;;
58615;SDS011;44385;51.992;4.206;2023-07-30T00:21:25;21.02;;;5.50;;
58615;SDS011;44385;51.992;4.206;2023-07-30T00:23:52;23.08;;;5.35;;
58615;SDS011;44385;51.992;4.206;2023-07-30T00:26:18;22.88;;;5.07;;
58615;SDS011;44385;51.992;4.206;2023-07-30T00:28:45;34.33;;;6.00;;
58615;SDS011;44385;51.992;4.206;2023-07-30T00:31:12;25.70;;;5.28;;
58615;SDS011;44385;51.992;4.206;2023-07-30T00:33:39;28.10;;;6.03;;
58615;SDS011;44385;51.992;4.206;2023-07-30T00:36:05;22.83;;;5.45;;
58615;SDS011;44385;51.992;4.206;2023-07-30T00:38:31;26.48;;;6.72;;
58615;SDS011;44385;51.992;4.206;2023-07-30T00:40:58;28.95;;;5.20;;
58615;SDS011;44385;51.992;4.206;2023-07-30T00:43:27;26.63;;;8.32;;
58615;SDS011;44385;51.992;4.206;2023-07-30T00:45:53;22.83;;;5.63;;
58615;SDS011;44385;51.992;4.206;2023-07-30T00:48:21;15.80;;;4.72;;
58615;SDS011;44385;51.992;4.206;2023-07-30T00:50:47;18.42;;;4.47;;
58615;SDS011;44385;51.992;4.206;2023-07-30T00:53:13;21.58;;;5.53;;
58615;SDS011;44385;51.992;4.206;2023-07-30T00:55:40;24.35;;;5.13;;
58615;SDS011;44385;51.992;4.206;2023-07-30T00:58:07;20.70;;;5.00;;
58615;SDS011;44385;51.992;4.206;2023-07-30T01:00:33;23.48;;;5.03;;
58615;SDS011;44385;51.992;4.206;2023-07-30T01:03:00;29.30;;;5.40;;
58615;SDS011;44385;51.992;4.206;2023-07-30T01:05:28;25.23;;;5.18;;
58615;SDS011;44385;51.992;4.206;2023-07-30T01:07:56;19.58;;;5.13;;
58615;SDS011;44385;51.992;4.206;2023-07-30T01:10:23;21.92;;;5.70;;
58615;SDS011;44385;51.992;4.206;2023-07-30T01:12:49;22.92;;;5.47;;
58615;SDS011;44385;51.992;4.206;2023-07-30T01:15:16;27.20;;;5.57;;
58615;SDS011;44385;51.992;4.206;2023-07-30T01:17:43;21.05;;;4.72;;
58615;SDS011;44385;51.992;4.206;2023-07-30T01:20:10;18.48;;;4.78;;
58615;SDS011;44385;51.992;4.206;2023-07-30T01:22:38;19.25;;;4.47;;
58615;SDS011;44385;51.992;4.206;2023-07-30T01:25:04;24.83;;;5.57;;
58615;SDS011;44385;51.992;4.206;2023-07-30T01:27:31;26.13;;;5.15;;
58615;SDS011;44385;51.992;4.206;2023-07-30T01:30:03;23.35;;;5.10;;
58615;SDS011;44385;51.992;4.206;2023-07-30T01:32:32;23.15;;;5.00;;
58615;SDS011;44385;51.992;4.206;2023-07-30T01:34:59;20.73;;;5.25;;
58615;SDS011;44385;51.992;4.206;2023-07-30T01:37:27;22.15;;;5.90;;
58615;SDS011;44385;51.992;4.206;2023-07-30T01:39:56;24.17;;;5.40;;
58615;SDS011;44385;51.992;4.206;2023-07-30T01:42:24;21.40;;;4.40;;
58615;SDS011;44385;51.992;4.206;2023-07-30T01:44:53;27.75;;;5.53;;
58615;SDS011;44385;51.992;4.206;2023-07-30T01:47:20;22.02;;;4.30;;
58615;SDS011;44385;51.992;4.206;2023-07-30T01:49:46;26.02;;;5.10;;
58615;SDS011;44385;51.992;4.206;2023-07-30T01:52:12;22.33;;;4.88;;
58615;SDS011;44385;51.992;4.206;2023-07-30T01:54:39;25.02;;;5.00;;
58615;SDS011;44385;51.992;4.206;2023-07-30T01:57:07;23.48;;;5.22;;
58615;SDS011;44385;51.992;4.206;2023-07-30T01:59:33;25.75;;;4.50;;
58615;SDS011;44385;51.992;4.206;2023-07-30T02:01:59;25.70;;;4.95;;
58615;SDS011;44385;51.992;4.206;2023-07-30T02:04:26;27.20;;;4.95;;
58615;SDS011;44385;51.992;4.206;2023-07-30T02:06:52;23.30;;;4.88;;
58615;SDS011;44385;51.992;4.206;2023-07-30T02:09:19;18.83;;;4.75;;
58615;SDS011;44385;51.992;4.206;2023-07-30T02:11:46;22.75;;;5.55;;
58615;SDS011;44385;51.992;4.206;2023-07-30T02:14:13;20.08;;;4.40;;
58615;SDS011;44385;51.992;4.206;2023-07-30T02:16:40;20.77;;;5.22;;
58615;SDS011;44385;51.992;4.206;2023-07-30T02:19:07;15.60;;;3.90;;
58615;SDS011;44385;51.992;4.206;2023-07-30T02:21:33;23.40;;;4.70;;
58615;SDS011;44385;51.992;4.206;2023-07-30T02:24:02;19.45;;;4.40;;
58615;SDS011;44385;51.992;4.206;2023-07-30T02:26:28;20.02;;;4.85;;
58615;SDS011;44385;51.992;4.206;2023-07-30T02:28:57;11.85;;;3.42;;
58615;SDS011;44385;51.992;4.206;2023-07-30T02:31:27;16.40;;;3.53;;
58615;SDS011;44385;51.992;4.206;2023-07-30T02:33:53;20.80;;;3.70;;
58615;SDS011;44385;51.992;4.206;2023-07-30T02:36:19;27.27;;;4.70;;
58615;SDS011;44385;51.992;4.206;2023-07-30T02:38:46;14.10;;;3.53;;
58615;SDS011;44385;51.992;4.206;2023-07-30T02:41:12;13.50;;;3.35;;
58615;SDS011;44385;51.992;4.206;2023-07-30T02:43:38;14.40;;;3.40;;
58615;SDS011;44385;51.992;4.206;2023-07-30T02:46:05;13.10;;;3.60;;
58615;SDS011;44385;51.992;4.206;2023-07-30T02:48:33;12.35;;;2.67;;
58615;SDS011;44385;51.992;4.206;2023-07-30T02:50:59;11.68;;;3.20;;
58615;SDS011;44385;51.992;4.206;2023-07-30T02:53:26;15.70;;;3.40;;
58615;SDS011;44385;51.992;4.206;2023-07-30T02:55:52;14.02;;;2.63;;
58615;SDS011;44385;51.992;4.206;2023-07-30T02:58:19;18.30;;;4.05;;
58615;SDS011;44385;51.992;4.206;2023-07-30T03:00:45;12.60;;;3.30;;
58615;SDS011;44385;51.992;4.206;2023-07-30T03:03:12;13.55;;;3.05;;
58615;SDS011;44385;51.992;4.206;2023-07-30T03:05:42;12.85;;;3.33;;
58615;SDS011;44385;51.992;4.206;2023-07-30T03:08:09;15.15;;;3.58;;
58615;SDS011;44385;51.992;4.206;2023-07-30T03:10:35;8.70;;;2.70;;
58615;SDS011;44385;51.992;4.206;2023-07-30T03:13:03;8.55;;;3.15;;
58615;SDS011;44385;51.992;4.206;2023-07-30T03:15:30;15.30;;;2.90;;
58615;SDS011;44385;51.992;4.206;2023-07-30T03:17:56;13.32;;;2.83;;
58615;SDS011;44385;51.992;4.206;2023-07-30T03:20:23;9.90;;;2.40;;
58615;SDS011;44385;51.992;4.206;2023-07-30T03:22:51;11.27;;;2.50;;
58615;SDS011;44385;51.992;4.206;2023-07-30T03:25:17;14.25;;;2.85;;
58615;SDS011;44385;51.992;4.206;2023-07-30T03:27:43;10.23;;;3.30;;
58615;SDS011;44385;51.992;4.206;2023-07-30T03:30:10;9.80;;;2.30;;
58615;SDS011;44385;51.992;4.206;2023-07-30T03:32:40;7.68;;;2.25;;
58615;SDS011;44385;51.992;4.206;2023-07-30T03:35:06;6.97;;;1.65;;
58615;SDS011;44385;51.992;4.206;2023-07-30T03:37:33;8.55;;;2.08;;
58615;SDS011;44385;51.992;4.206;2023-07-30T03:40:01;6.72;;;1.83;;
58615;SDS011;44385;51.992;4.206;2023-07-30T03:42:27;11.75;;;2.17;;
58615;SDS011;44385;51.992;4.206;2023-07-30T03:44:53;8.77;;;2.20;;
58615;SDS011;44385;51.992;4.206;2023-07-30T03:47:20;5.03;;;1.90;;
58615;SDS011;44385;51.992;4.206;2023-07-30T03:49:46;7.70;;;1.80;;
58615;SDS011;44385;51.992;4.206;2023-07-30T03:52:12;5.07;;;1.50;;
58615;SDS011;44385;51.992;4.206;2023-07-30T03:54:39;6.35;;;1.65;;
58615;SDS011;44385;51.992;4.206;2023-07-30T03:57:07;5.43;;;2.10;;
58615;SDS011;44385;51.992;4.206;2023-07-30T03:59:33;11.50;;;2.08;;
58615;SDS011;44385;51.992;4.206;2023-07-30T04:01:59;5.45;;;1.70;;
58615;SDS011;44385;51.992;4.206;2023-07-30T04:04:26;4.40;;;1.30;;
58615;SDS011;44385;51.992;4.206;2023-07-30T04:06:52;7.72;;;1.45;;
58615;SDS011;44385;51.992;4.206;2023-07-30T04:09:18;7.57;;;1.65;;
58615;SDS011;44385;51.992;4.206;2023-07-30T04:11:45;6.75;;;2.03;;
58615;SDS011;44385;51.992;4.206;2023-07-30T04:14:12;6.28;;;1.83;;
58615;SDS011;44385;51.992;4.206;2023-07-30T04:16:39;10.43;;;2.13;;
58615;SDS011;44385;51.992;4.206;2023-07-30T04:19:05;6.60;;;2.08;;
58615;SDS011;44385;51.992;4.206;2023-07-30T04:21:32;5.60;;;1.67;;
58615;SDS011;44385;51.992;4.206;2023-07-30T04:23:58;10.40;;;3.08;;
58615;SDS011;44385;51.992;4.206;2023-07-30T04:26:24;9.38;;;2.20;;
58615;SDS011;44385;51.992;4.206;2023-07-30T04:28:51;5.95;;;1.63;;
58615;SDS011;44385;51.992;4.206;2023-07-30T04:31:19;6.72;;;1.98;;
58615;SDS011;44385;51.992;4.206;2023-07-30T04:33:45;4.50;;;1.63;;
58615;SDS011;44385;51.992;4.206;2023-07-30T04:36:11;8.55;;;1.92;;
58615;SDS011;44385;51.992;4.206;2023-07-30T04:38:38;8.73;;;2.45;;
58615;SDS011;44385;51.992;4.206;2023-07-30T04:41:04;5.93;;;1.88;;
58615;SDS011;44385;51.992;4.206;2023-07-30T04:43:31;7.43;;;2.00;;
58615;SDS011;44385;51.992;4.206;2023-07-30T04:45:57;8.15;;;2.22;;
58615;SDS011;44385;51.992;4.206;2023-07-30T04:48:25;10.90;;;2.08;;
58615;SDS011;44385;51.992;4.206;2023-07-30T04:50:51;12.98;;;3.60;;
58615;SDS011;44385;51.992;4.206;2023-07-30T04:53:17;9.82;;;2.28;;
58615;SDS011;44385;51.992;4.206;2023-07-30T04:55:45;8.23;;;2.45;;
58615;SDS011;44385;51.992;4.206;2023-07-30T04:58:12;12.70;;;2.83;;
58615;SDS011;44385;51.992;4.206;2023-07-30T05:00:38;10.15;;;2.95;;
58615;SDS011;44385;51.992;4.206;2023-07-30T05:03:04;11.95;;;3.40;;
58615;SDS011;44385;51.992;4.206;2023-07-30T05:05:35;7.70;;;2.05;;
58615;SDS011;44385;51.992;4.206;2023-07-30T05:08:01;9.05;;;3.10;;
58615;SDS011;44385;51.992;4.206;2023-07-30T05:10:27;7.63;;;2.25;;
58615;SDS011;44385;51.992;4.206;2023-07-30T05:12:56;18.40;;;3.27;;
58615;SDS011;44385;51.992;4.206;2023-07-30T05:15:22;10.82;;;3.42;;
58615;SDS011;44385;51.992;4.206;2023-07-30T05:17:49;10.40;;;3.30;;
58615;SDS011;44385;51.992;4.206;2023-07-30T05:20:15;10.52;;;2.60;;
58615;SDS011;44385;51.992;4.206;2023-07-30T05:22:43;7.80;;;3.00;;
58615;SDS011;44385;51.992;4.206;2023-07-30T05:25:09;9.13;;;2.75;;
58615;SDS011;44385;51.992;4.206;2023-07-30T05:27:36;6.13;;;2.03;;
58615;SDS011;44385;51.992;4.206;2023-07-30T05:30:05;7.78;;;2.58;;
58615;SDS011;44385;51.992;4.206;2023-07-30T05:32:32;10.98;;;2.53;;
58615;SDS011;44385;51.992;4.206;2023-07-30T05:34:58;5.35;;;1.92;;
58615;SDS011;44385;51.992;4.206;2023-07-30T05:37:25;6.82;;;1.92;;
58615;SDS011;44385;51.992;4.206;2023-07-30T05:39:52;9.50;;;2.40;;
58615;SDS011;44385;51.992;4.206;2023-07-30T05:42:19;13.63;;;2.42;;
58615;SDS011;44385;51.992;4.206;2023-07-30T05:44:45;7.68;;;1.90;;
58615;SDS011;44385;51.992;4.206;2023-07-30T05:47:11;11.73;;;2.75;;
58615;SDS011;44385;51.992;4.206;2023-07-30T05:49:38;9.15;;;3.42;;
58615;SDS011;44385;51.992;4.206;2023-07-30T05:52:05;8.45;;;2.60;;
58615;SDS011;44385;51.992;4.206;2023-07-30T05:54:31;7.88;;;2.45;;
58615;SDS011;44385;51.992;4.206;2023-07-30T05:57:02;9.43;;;2.70;;
58615;SDS011;44385;51.992;4.206;2023-07-30T05:59:28;13.30;;;2.78;;
58615;SDS011;44385;51.992;4.206;2023-07-30T06:01:56;9.87;;;2.77;;
58615;SDS011;44385;51.992;4.206;2023-07-30T06:04:24;11.60;;;2.28;;
58615;SDS011;44385;51.992;4.206;2023-07-30T06:06:50;8.48;;;2.03;;
58615;SDS011;44385;51.992;4.206;2023-07-30T06:09:17;6.85;;;1.85;;
58615;SDS011;44385;51.992;4.206;2023-07-30T06:11:43;6.53;;;1.48;;
58615;SDS011;44385;51.992;4.206;2023-07-30T06:14:11;15.05;;;2.50;;
58615;SDS011;44385;51.992;4.206;2023-07-30T06:16:38;6.40;;;2.03;;
58615;SDS011;44385;51.992;4.206;2023-07-30T06:19:04;6.53;;;1.85;;
58615;SDS011;44385;51.992;4.206;2023-07-30T06:21:31;6.25;;;2.05;;
58615;SDS011;44385;51.992;4.206;2023-07-30T06:23:57;14.23;;;3.20;;
58615;SDS011;44385;51.992;4.206;2023-07-30T06:26:23;9.43;;;1.98;;
58615;SDS011;44385;51.992;4.206;2023-07-30T06:28:50;10.48;;;2.60;;
58615;SDS011;44385;51.992;4.206;2023-07-30T06:31:18;12.30;;;2.75;;
58615;SDS011;44385;51.992;4.206;2023-07-30T06:33:44;7.72;;;2.30;;
58615;SDS011;44385;51.992;4.206;2023-07-30T06:36:11;12.13;;;2.53;;
58615;SDS011;44385;51.992;4.206;2023-07-30T06:38:40;7.20;;;2.28;;
58615;SDS011;44385;51.992;4.206;2023-07-30T06:41:06;9.20;;;1.83;;
58615;SDS011;44385;51.992;4.206;2023-07-30T06:43:33;8.65;;;2.30;;
58615;SDS011;44385;51.992;4.206;2023-07-30T06:45:59;12.10;;;2.92;;
58615;SDS011;44385;51.992;4.206;2023-07-30T06:48:27;8.85;;;2.70;;
58615;SDS011;44385;51.992;4.206;2023-07-30T06:50:53;9.75;;;2.60;;
58615;SDS011;44385;51.992;4.206;2023-07-30T06:53:20;9.88;;;2.00;;
58615;SDS011;44385;51.992;4.206;2023-07-30T06:55:46;10.88;;;2.55;;
58615;SDS011;44385;51.992;4.206;2023-07-30T06:58:13;10.27;;;2.25;;
58615;SDS011;44385;51.992;4.206;2023-07-30T07:00:39;10.40;;;2.97;;
58615;SDS011;44385;51.992;4.206;2023-07-30T07:03:06;7.25;;;2.05;;
58615;SDS011;44385;51.992;4.206;2023-07-30T07:05:33;9.00;;;2.63;;
58615;SDS011;44385;51.992;4.206;2023-07-30T07:08:00;13.25;;;2.97;;
58615;SDS011;44385;51.992;4.206;2023-07-30T07:10:26;10.90;;;2.90;;
58615;SDS011;44385;51.992;4.206;2023-07-30T07:12:52;7.32;;;2.22;;
58615;SDS011;44385;51.992;4.206;2023-07-30T07:15:19;12.55;;;2.97;;
58615;SDS011;44385;51.992;4.206;2023-07-30T07:17:45;11.85;;;2.90;;
58615;SDS011;44385;51.992;4.206;2023-07-30T07:20:11;9.95;;;3.17;;
58615;SDS011;44385;51.992;4.206;2023-07-30T07:22:39;8.13;;;2.35;;
58615;SDS011;44385;51.992;4.206;2023-07-30T07:25:06;6.15;;;2.15;;
58615;SDS011;44385;51.992;4.206;2023-07-30T07:27:32;10.65;;;2.33;;
58615;SDS011;44385;51.992;4.206;2023-07-30T07:29:59;10.45;;;3.42;;
58615;SDS011;44385;51.992;4.206;2023-07-30T07:32:26;9.10;;;2.92;;
58615;SDS011;44385;51.992;4.206;2023-07-30T07:34:53;10.82;;;2.42;;
58615;SDS011;44385;51.992;4.206;2023-07-30T07:37:19;13.35;;;2.45;;
58615;SDS011;44385;51.992;4.206;2023-07-30T07:39:47;6.82;;;2.47;;
58615;SDS011;44385;51.992;4.206;2023-07-30T07:42:13;14.48;;;2.83;;
58615;SDS011;44385;51.992;4.206;2023-07-30T07:44:40;8.60;;;1.90;;
58615;SDS011;44385;51.992;4.206;2023-07-30T07:47:09;12.45;;;2.88;;
58615;SDS011;44385;51.992;4.206;2023-07-30T07:49:35;7.15;;;2.67;;
58615;SDS011;44385;51.992;4.206;2023-07-30T07:52:01;9.77;;;2.53;;
58615;SDS011;44385;51.992;4.206;2023-07-30T07:54:28;9.40;;;2.20;;
58615;SDS011;44385;51.992;4.206;2023-07-30T07:56:58;13.43;;;3.47;;
58615;SDS011;44385;51.992;4.206;2023-07-30T07:59:24;7.82;;;2.60;;
58615;SDS011;44385;51.992;4.206;2023-07-30T08:01:52;13.45;;;2.40;;
58615;SDS011;44385;51.992;4.206;2023-07-30T08:04:19;9.98;;;2.78;;
58615;SDS011;44385;51.992;4.206;2023-07-30T08:06:46;13.57;;;2.95;;
58615;SDS011;44385;51.992;4.206;2023-07-30T08:09:12;12.30;;;2.42;;
58615;SDS011;44385;51.992;4.206;2023-07-30T08:11:39;8.65;;;2.90;;
58615;SDS011;44385;51.992;4.206;2023-07-30T08:14:07;6.82;;;2.10;;
58615;SDS011;44385;51.992;4.206;2023-07-30T08:16:33;9.45;;;2.55;;
58615;SDS011;44385;51.992;4.206;2023-07-30T08:19:00;11.70;;;2.15;;
58615;SDS011;44385;51.992;4.206;2023-07-30T08:21:26;13.02;;;2.58;;
58615;SDS011;44385;51.992;4.206;2023-07-30T08:23:53;10.50;;;2.58;;
58615;SDS011;44385;51.992;4.206;2023-07-30T08:26:19;8.27;;;2.65;;
58615;SDS011;44385;51.992;4.206;2023-07-30T08:28:45;10.75;;;2.53;;
58615;SDS011;44385;51.992;4.206;2023-07-30T08:31:13;7.88;;;2.38;;
58615;SDS011;44385;51.992;4.206;2023-07-30T08:33:39;8.38;;;2.33;;
58615;SDS011;44385;51.992;4.206;2023-07-30T08:36:06;10.38;;;2.30;;
58615;SDS011;44385;51.992;4.206;2023-07-30T08:38:32;11.20;;;2.83;;
58615;SDS011;44385;51.992;4.206;2023-07-30T08:40:58;8.32;;;2.53;;
58615;SDS011;44385;51.992;4.206;2023-07-30T08:43:26;11.82;;;2.60;;
58615;SDS011;44385;51.992;4.206;2023-07-30T08:45:52;8.02;;;2.28;;
58615;SDS011;44385;51.992;4.206;2023-07-30T08:48:20;9.07;;;2.55;;
58615;SDS011;44385;51.992;4.206;2023-07-30T08:50:47;11.05;;;2.50;;
58615;SDS011;44385;51.992;4.206;2023-07-30T08:53:14;8.95;;;2.55;;
58615;SDS011;44385;51.992;4.206;2023-07-30T08:55:41;8.10;;;2.50;;
58615;SDS011;44385;51.992;4.206;2023-07-30T08:58:07;11.13;;;2.08;;
58615;SDS011;44385;51.992;4.206;2023-07-30T09:00:36;7.45;;;2.65;;
58615;SDS011;44385;51.992;4.206;2023-07-30T09:03:05;9.65;;;2.25;;
58615;SDS011;44385;51.992;4.206;2023-07-30T09:05:34;8.80;;;1.90;;
58615;SDS011;44385;51.992;4.206;2023-07-30T09:08:00;8.75;;;2.60;;
58615;SDS011;44385;51.992;4.206;2023-07-30T09:10:26;6.32;;;1.80;;
58615;SDS011;44385;51.992;4.206;2023-07-30T09:12:53;9.20;;;2.05;;
58615;SDS011;44385;51.992;4.206;2023-07-30T09:15:20;8.30;;;2.08;;
58615;SDS011;44385;51.992;4.206;2023-07-30T09:17:57;12.80;;;2.15;;
58615;SDS011;44385;51.992;4.206;2023-07-30T09:20:23;6.53;;;2.50;;
58615;SDS011;44385;51.992;4.206;2023-07-30T09:22:51;10.05;;;2.25;;
58615;SDS011;44385;51.992;4.206;2023-07-30T09:25:18;5.97;;;1.50;;
58615;SDS011;44385;51.992;4.206;2023-07-30T09:27:47;5.82;;;1.67;;
58615;SDS011;44385;51.992;4.206;2023-07-30T09:30:13;10.32;;;2.22;;
58615;SDS011;44385;51.992;4.206;2023-07-30T09:32:40;10.50;;;2.28;;
58615;SDS011;44385;51.992;4.206;2023-07-30T09:35:06;10.63;;;2.22;;
58615;SDS011;44385;51.992;4.206;2023-07-30T09:37:35;9.20;;;2.38;;
58615;SDS011;44385;51.992;4.206;2023-07-30T09:40:07;8.85;;;2.35;;
58615;SDS011;44385;51.992;4.206;2023-07-30T09:42:34;9.10;;;1.70;;
58615;SDS011;44385;51.992;4.206;2023-07-30T09:45:03;11.73;;;1.85;;
58615;SDS011;44385;51.992;4.206;2023-07-30T09:47:30;10.75;;;2.40;;
58615;SDS011;44385;51.992;4.206;2023-07-30T09:49:57;11.93;;;1.95;;
58615;SDS011;44385;51.992;4.206;2023-07-30T09:52:23;8.68;;;1.60;;
58615;SDS011;44385;51.992;4.206;2023-07-30T09:54:49;8.85;;;2.25;;
58615;SDS011;44385;51.992;4.206;2023-07-30T09:57:19;8.13;;;2.05;;
58615;SDS011;44385;51.992;4.206;2023-07-30T09:59:45;9.70;;;2.50;;
58615;SDS011;44385;51.992;4.206;2023-07-30T10:02:12;4.15;;;1.70;;
58615;SDS011;44385;51.992;4.206;2023-07-30T10:04:39;7.70;;;2.40;;
58615;SDS011;44385;51.992;4.206;2023-07-30T10:07:08;7.30;;;2.03;;
58615;SDS011;44385;51.992;4.206;2023-07-30T10:09:37;8.77;;;2.00;;
58615;SDS011;44385;51.992;4.206;2023-07-30T10:12:08;10.85;;;2.17;;
58615;SDS011;44385;51.992;4.206;2023-07-30T10:14:37;9.63;;;2.25;;
58615;SDS011;44385;51.992;4.206;2023-07-30T10:17:04;5.10;;;1.77;;
58615;SDS011;44385;51.992;4.206;2023-07-30T10:19:31;6.05;;;2.35;;
58615;SDS011;44385;51.992;4.206;2023-07-30T10:21:58;10.70;;;1.77;;
58615;SDS011;44385;51.992;4.206;2023-07-30T10:24:26;6.35;;;1.88;;
58615;SDS011;44385;51.992;4.206;2023-07-30T10:26:53;6.80;;;2.10;;
58615;SDS011;44385;51.992;4.206;2023-07-30T10:29:22;7.85;;;3.10;;
58615;SDS011;44385;51.992;4.206;2023-07-30T10:31:52;11.02;;;2.30;;
58615;SDS011;44385;51.992;4.206;2023-07-30T10:34:19;6.32;;;2.00;;
58615;SDS011;44385;51.992;4.206;2023-07-30T10:36:46;10.13;;;1.98;;
58615;SDS011;44385;51.992;4.206;2023-07-30T10:39:14;7.03;;;2.42;;
58615;SDS011;44385;51.992;4.206;2023-07-30T10:41:40;8.88;;;2.05;;
58615;SDS011;44385;51.992;4.206;2023-07-30T10:44:08;10.25;;;2.72;;
58615;SDS011;44385;51.992;4.206;2023-07-30T10:46:43;10.70;;;2.47;;
58615;SDS011;44385;51.992;4.206;2023-07-30T10:49:10;8.05;;;2.20;;
58615;SDS011;44385;51.992;4.206;2023-07-30T10:51:38;8.57;;;2.10;;
58615;SDS011;44385;51.992;4.206;2023-07-30T10:54:05;7.18;;;1.85;;
58615;SDS011;44385;51.992;4.206;2023-07-30T10:56:32;8.05;;;2.17;;
58615;SDS011;44385;51.992;4.206;2023-07-30T10:59:00;9.32;;;2.53;;
58615;SDS011;44385;51.992;4.206;2023-07-30T11:01:30;10.52;;;2.72;;
58615;SDS011;44385;51.992;4.206;2023-07-30T11:03:56;7.38;;;2.42;;
58615;SDS011;44385;51.992;4.206;2023-07-30T11:06:25;6.13;;;1.80;;
58615;SDS011;44385;51.992;4.206;2023-07-30T11:08:52;7.50;;;1.98;;
58615;SDS011;44385;51.992;4.206;2023-07-30T11:11:18;12.38;;;2.95;;
58615;SDS011;44385;51.992;4.206;2023-07-30T11:13:45;8.10;;;2.13;;
58615;SDS011;44385;51.992;4.206;2023-07-30T11:16:12;6.80;;;1.80;;
58615;SDS011;44385;51.992;4.206;2023-07-30T11:18:39;11.15;;;2.17;;
58615;SDS011;44385;51.992;4.206;2023-07-30T11:21:06;8.73;;;2.10;;
58615;SDS011;44385;51.992;4.206;2023-07-30T11:23:34;5.63;;;1.88;;
58615;SDS011;44385;51.992;4.206;2023-07-30T11:26:01;15.63;;;2.28;;
58615;SDS011;44385;51.992;4.206;2023-07-30T11:28:28;9.40;;;2.30;;
58615;SDS011;44385;51.992;4.206;2023-07-30T11:30:57;7.15;;;1.75;;
58615;SDS011;44385;51.992;4.206;2023-07-30T11:33:24;9.35;;;2.20;;
58615;SDS011;44385;51.992;4.206;2023-07-30T11:35:51;10.23;;;1.90;;
58615;SDS011;44385;51.992;4.206;2023-07-30T11:38:18;7.07;;;1.52;;
58615;SDS011;44385;51.992;4.206;2023-07-30T11:40:46;7.05;;;1.63;;
58615;SDS011;44385;51.992;4.206;2023-07-30T11:43:13;5.78;;;1.65;;
58615;SDS011;44385;51.992;4.206;2023-07-30T11:45:40;7.68;;;2.13;;
58615;SDS011;44385;51.992;4.206;2023-07-30T11:48:06;7.32;;;1.67;;
58615;SDS011;44385;51.992;4.206;2023-07-30T11:50:42;10.27;;;2.15;;
58615;SDS011;44385;51.992;4.206;2023-07-30T11:53:08;9.93;;;2.38;;
58615;SDS011;44385;51.992;4.206;2023-07-30T11:55:36;8.55;;;1.85;;
58615;SDS011;44385;51.992;4.206;2023-07-30T11:58:05;10.40;;;2.17;;
58615;SDS011;44385;51.992;4.206;2023-07-30T12:00:31;8.20;;;1.95;;
58615;SDS011;44385;51.992;4.206;2023-07-30T12:02:59;7.47;;;1.40;;
58615;SDS011;44385;51.992;4.206;2023-07-30T12:05:31;7.07;;;2.50;;
58615;SDS011;44385;51.992;4.206;2023-07-30T12:07:58;13.02;;;1.88;;
58615;SDS011;44385;51.992;4.206;2023-07-30T12:10:28;5.47;;;1.52;;
58615;SDS011;44385;51.992;4.206;2023-07-30T12:13:11;6.10;;;1.70;;
58615;SDS011;44385;51.992;4.206;2023-07-30T12:15:38;5.97;;;1.95;;
58615;SDS011;44385;51.992;4.206;2023-07-30T12:18:04;9.32;;;1.88;;
58615;SDS011;44385;51.992;4.206;2023-07-30T12:20:31;6.07;;;1.80;;
58615;SDS011;44385;51.992;4.206;2023-07-30T12:22:57;8.93;;;1.50;;
58615;SDS011;44385;51.992;4.206;2023-07-30T12:25:23;9.25;;;2.42;;
58615;SDS011;44385;51.992;4.206;2023-07-30T12:27:50;6.05;;;1.70;;
58615;SDS011;44385;51.992;4.206;2023-07-30T12:30:17;10.48;;;1.60;;
58615;SDS011;44385;51.992;4.206;2023-07-30T12:32:44;8.73;;;2.40;;
58615;SDS011;44385;51.992;4.206;2023-07-30T12:35:10;10.13;;;1.90;;
58615;SDS011;44385;51.992;4.206;2023-07-30T12:37:38;10.68;;;2.13;;
58615;SDS011;44385;51.992;4.206;2023-07-30T12:40:05;8.00;;;1.75;;
58615;SDS011;44385;51.992;4.206;2023-07-30T12:42:32;6.53;;;2.35;;
58615;SDS011;44385;51.992;4.206;2023-07-30T12:44:58;13.68;;;2.38;;
58615;SDS011;44385;51.992;4.206;2023-07-30T12:47:26;8.77;;;2.15;;
58615;SDS011;44385;51.992;4.206;2023-07-30T12:49:52;8.25;;;1.98;;
58615;SDS011;44385;51.992;4.206;2023-07-30T12:52:19;9.40;;;2.45;;
58615;SDS011;44385;51.992;4.206;2023-07-30T12:54:45;7.97;;;2.15;;
58615;SDS011;44385;51.992;4.206;2023-07-30T12:57:12;13.10;;;3.30;;
58615;SDS011;44385;51.992;4.206;2023-07-30T12:59:38;16.83;;;3.00;;
58615;SDS011;44385;51.992;4.206;2023-07-30T13:02:05;10.75;;;2.85;;
58615;SDS011;44385;51.992;4.206;2023-07-30T13:04:33;14.80;;;3.38;;
58615;SDS011;44385;51.992;4.206;2023-07-30T13:06:59;9.38;;;2.28;;
58615;SDS011;44385;51.992;4.206;2023-07-30T13:09:25;11.73;;;2.58;;
58615;SDS011;44385;51.992;4.206;2023-07-30T13:11:52;10.50;;;2.88;;
58615;SDS011;44385;51.992;4.206;2023-07-30T13:14:18;10.60;;;2.72;;
58615;SDS011;44385;51.992;4.206;2023-07-30T13:16:45;11.23;;;2.92;;
58615;SDS011;44385;51.992;4.206;2023-07-30T13:19:11;14.57;;;2.85;;
58615;SDS011;44385;51.992;4.206;2023-07-30T13:21:39;12.60;;;2.72;;
58615;SDS011;44385;51.992;4.206;2023-07-30T13:24:05;10.82;;;2.60;;
58615;SDS011;44385;51.992;4.206;2023-07-30T13:26:32;10.13;;;3.30;;
58615;SDS011;44385;51.992;4.206;2023-07-30T13:28:58;9.98;;;3.85;;
58615;SDS011;44385;51.992;4.206;2023-07-30T13:31:24;16.70;;;3.83;;
58615;SDS011;44385;51.992;4.206;2023-07-30T13:33:51;13.68;;;3.70;;
58615;SDS011;44385;51.992;4.206;2023-07-30T13:36:17;12.10;;;3.20;;
58615;SDS011;44385;51.992;4.206;2023-07-30T13:38:45;15.18;;;4.35;;
58615;SDS011;44385;51.992;4.206;2023-07-30T13:41:12;14.70;;;3.08;;
58615;SDS011;44385;51.992;4.206;2023-07-30T13:43:39;13.63;;;3.78;;
58615;SDS011;44385;51.992;4.206;2023-07-30T13:46:05;16.42;;;4.20;;
58615;SDS011;44385;51.992;4.206;2023-07-30T13:48:31;17.92;;;4.57;;
58615;SDS011;44385;51.992;4.206;2023-07-30T13:50:58;19.83;;;5.00;;
58615;SDS011;44385;51.992;4.206;2023-07-30T13:53:24;11.82;;;3.90;;
58615;SDS011;44385;51.992;4.206;2023-07-30T13:55:52;17.55;;;3.67;;
58615;SDS011;44385;51.992;4.206;2023-07-30T13:58:19;12.35;;;3.85;;
58615;SDS011;44385;51.992;4.206;2023-07-30T14:00:45;14.05;;;3.95;;
58615;SDS011;44385;51.992;4.206;2023-07-30T14:03:11;19.92;;;5.07;;
58615;SDS011;44385;51.992;4.206;2023-07-30T14:05:38;18.48;;;4.95;;
58615;SDS011;44385;51.992;4.206;2023-07-30T14:08:04;16.98;;;4.07;;
58615;SDS011;44385;51.992;4.206;2023-07-30T14:10:31;17.25;;;4.70;;
58615;SDS011;44385;51.992;4.206;2023-07-30T14:12:58;16.20;;;3.70;;
58615;SDS011;44385;51.992;4.206;2023-07-30T14:15:25;14.88;;;4.10;;
58615;SDS011;44385;51.992;4.206;2023-07-30T14:17:51;17.88;;;5.00;;
58615;SDS011;44385;51.992;4.206;2023-07-30T14:20:19;19.40;;;5.13;;
58615;SDS011;44385;51.992;4.206;2023-07-30T14:22:45;14.98;;;3.58;;
58615;SDS011;44385;51.992;4.206;2023-07-30T14:25:14;19.55;;;4.20;;
58615;SDS011;44385;51.992;4.206;2023-07-30T14:27:40;24.17;;;5.78;;
58615;SDS011;44385;51.992;4.206;2023-07-30T14:30:09;18.25;;;4.65;;
58615;SDS011;44385;51.992;4.206;2023-07-30T14:32:35;13.67;;;4.40;;
58615;SDS011;44385;51.992;4.206;2023-07-30T14:35:01;20.92;;;5.72;;
58615;SDS011;44385;51.992;4.206;2023-07-30T14:37:28;20.42;;;4.75;;
58615;SDS011;44385;51.992;4.206;2023-07-30T14:39:55;21.90;;;5.22;;